LiveATC.Net - Listen to live air traffic control over the Internet! Contact for advertising information

ICAO: KHXD  IATA: HXD   Airport: Hilton Head Airport
City: Hilton Head Island   State/Province: South Carolina
Country: United States   Continent: North America
KHXD METAR Weather: KHXD 300555Z AUTO 00000KT 10SM CLR 13/13 A3013 RMK AO2 P0000
KHXD Flight Activity (FlightAware)
KHXD Airport Info   (AirNav) (iFlightPlanner)
KHXD VFR Sectional Chart   (iFlightPlanner) 
KHXD IFR Low Chart   (iFlightPlanner) 
KHXD Ground/Tower
Feed Status: UP   Listeners: 2
Listen right in your browser - requires Flash (in browser, requires Flash)
Click here to listen with your own player (launches your MP3 player)
KHXD Ground/Tower Audio Archives
Hilton Head Ground121.100
Hilton Head Tower118.975


Unauthorized use prohibited. See Terms of Service

Find LiveATC Audio Streams

Airport/ARTCC Code

(e.g., 124.400, 128.75)
Site-wide search

Browse LiveATC Feeds
LiveATC Coverage Map
Top 50 LiveATC Feeds
Bad Weather Areas

Offer a LiveATC Feed
Press Inquiries

LiveATC on iPhone
LiveATC on Android

Windows Phone
Windows 8/10

LiveATC Mobile
(Mobile browser)

ATC Audio Archives
Interesting Recordings

LiveATC Forums

Home Page
Make a Donation
LiveATC Bookstore

Terms of Use
Privacy Policy

ATC/Radar Sites
U.S. ARTCC Freqs
Canadian Air Freqs


FAA Airport Status
Nat'l Airspace Status
Arrival Demand Charts

Server Software By:

Please make a donation to help us keep growing!